Little Sauk, Minnesota
Current Conditions -  °F | °C
As of 8:03 AM on Saturday 25 Oct 2014 (Local Time) from K14Y Reporting Station
Clear Clear  
Wind Chill: 37°   Ceiling: Unl
Heat Index: 43°   Visibility: 10mi
Dew Point: 32°   Wind: 9mph
Humidity: 66%   Direction: 260°W
Pressure: 30.04"   Gusts: NA
Location:  45.9633°N, 94.9343°W
Report Text: K14Y 251303Z AUTO 26008KT 10SM CLR 06/00 A3004 RMK AO2
Loading
Personal Weather Stations






























Interactive Weather Map
Tropical Storm Tracking
New forecast layout! Learn more

10-Day Weather Forecast

Advertisements
Track Severe Weather on mobile